sensor_id;sensor_type;location;lat;lon;timestamp;pressure;altitude;pressure_sealevel;temperature
27715;BMP280;16051;53.024;8.630;2023-04-01T00:02:04;99306.19;;;10.54
27715;BMP280;16051;53.024;8.630;2023-04-01T00:06:07;99303.94;;;10.52
27715;BMP280;16051;53.024;8.630;2023-04-01T00:10:12;99311.44;;;10.46
27715;BMP280;16051;53.024;8.630;2023-04-01T00:14:17;99320.75;;;10.49
27715;BMP280;16051;53.024;8.630;2023-04-01T00:18:19;99301.91;;;10.47
27715;BMP280;16051;53.024;8.630;2023-04-01T00:22:21;99307.44;;;10.47
27715;BMP280;16051;53.024;8.630;2023-04-01T00:26:23;99309.22;;;10.45
27715;BMP280;16051;53.024;8.630;2023-04-01T00:30:28;99307.94;;;10.46
27715;BMP280;16051;53.024;8.630;2023-04-01T00:34:30;99310.47;;;10.44
27715;BMP280;16051;53.024;8.630;2023-04-01T00:38:32;99311.97;;;10.45
27715;BMP280;16051;53.024;8.630;2023-04-01T00:42:34;99300.41;;;10.46
27715;BMP280;16051;53.024;8.630;2023-04-01T00:46:38;99299.66;;;10.40
27715;BMP280;16051;53.024;8.630;2023-04-01T00:50:44;99299.66;;;10.40
27715;BMP280;16051;53.024;8.630;2023-04-01T00:54:54;99304.94;;;10.44
27715;BMP280;16051;53.024;8.630;2023-04-01T00:59:14;99305.69;;;10.38
27715;BMP280;16051;53.024;8.630;2023-04-01T01:03:19;99308.72;;;10.41
27715;BMP280;16051;53.024;8.630;2023-04-01T01:07:34;99308.44;;;10.38
27715;BMP280;16051;53.024;8.630;2023-04-01T01:11:44;99307.72;;;10.38
27715;BMP280;16051;53.024;8.630;2023-04-01T01:15:54;99306.94;;;10.43
27715;BMP280;16051;53.024;8.630;2023-04-01T01:20:38;99305.94;;;10.41
27715;BMP280;16051;53.024;8.630;2023-04-01T01:25:11;99306.44;;;10.39
27715;BMP280;16051;53.024;8.630;2023-04-01T01:34:16;99315.47;;;10.40
27715;BMP280;16051;53.024;8.630;2023-04-01T01:38:27;99310.22;;;10.36
27715;BMP280;16051;53.024;8.630;2023-04-01T01:42:34;99306.94;;;10.32
27715;BMP280;16051;53.024;8.630;2023-04-01T01:46:39;99305.94;;;10.35
27715;BMP280;16051;53.024;8.630;2023-04-01T01:50:45;99308.47;;;10.33
27715;BMP280;16051;53.024;8.630;2023-04-01T01:54:50;99306.69;;;10.35
27715;BMP280;16051;53.024;8.630;2023-04-01T01:58:58;99310.97;;;10.36
27715;BMP280;16051;53.024;8.630;2023-04-01T02:03:03;99317.22;;;10.31
27715;BMP280;16051;53.024;8.630;2023-04-01T02:07:13;99312.72;;;10.28
27715;BMP280;16051;53.024;8.630;2023-04-01T02:11:24;99312.72;;;10.28
27715;BMP280;16051;53.024;8.630;2023-04-01T02:15:30;99319.47;;;10.27
27715;BMP280;16051;53.024;8.630;2023-04-01T02:19:39;99315.00;;;10.30
27715;BMP280;16051;53.024;8.630;2023-04-01T02:23:46;99316.72;;;10.33
27715;BMP280;16051;53.024;8.630;2023-04-01T02:27:50;99322.25;;;10.33
27715;BMP280;16051;53.024;8.630;2023-04-01T02:31:54;99328.25;;;10.31
27715;BMP280;16051;53.024;8.630;2023-04-01T02:36:07;99319.75;;;10.29
27715;BMP280;16051;53.024;8.630;2023-04-01T02:40:18;99327.00;;;10.21
27715;BMP280;16051;53.024;8.630;2023-04-01T02:44:21;99334.28;;;10.24
27715;BMP280;16051;53.024;8.630;2023-04-01T02:48:24;99332.28;;;10.19
27715;BMP280;16051;53.024;8.630;2023-04-01T02:52:27;99335.53;;;10.29
27715;BMP280;16051;53.024;8.630;2023-04-01T02:56:29;99336.31;;;10.29
27715;BMP280;16051;53.024;8.630;2023-04-01T03:00:46;99335.78;;;10.25
27715;BMP280;16051;53.024;8.630;2023-04-01T03:04:50;99342.81;;;10.26
27715;BMP280;16051;53.024;8.630;2023-04-01T03:08:52;99337.28;;;10.21
27715;BMP280;16051;53.024;8.630;2023-04-01T03:12:54;99346.56;;;10.18
27715;BMP280;16051;53.024;8.630;2023-04-01T03:16:58;99342.06;;;10.26
27715;BMP280;16051;53.024;8.630;2023-04-01T03:21:14;99341.31;;;10.14
27715;BMP280;16051;53.024;8.630;2023-04-01T03:25:18;99339.75;;;10.13
27715;BMP280;16051;53.024;8.630;2023-04-01T03:29:20;99341.81;;;10.18
27715;BMP280;16051;53.024;8.630;2023-04-01T03:33:24;99348.34;;;10.15
27715;BMP280;16051;53.024;8.630;2023-04-01T03:37:26;99355.81;;;10.09
27715;BMP280;16051;53.024;8.630;2023-04-01T03:41:28;99355.06;;;10.03
27715;BMP280;16051;53.024;8.630;2023-04-01T03:45:32;99358.81;;;10.06
27715;BMP280;16051;53.024;8.630;2023-04-01T03:49:36;99361.09;;;10.07
27715;BMP280;16051;53.024;8.630;2023-04-01T03:53:38;99358.84;;;10.11
27715;BMP280;16051;53.024;8.630;2023-04-01T03:57:42;99368.91;;;10.14
27715;BMP280;16051;53.024;8.630;2023-04-01T04:01:46;99367.59;;;10.04
27715;BMP280;16051;53.024;8.630;2023-04-01T04:05:50;99367.84;;;10.06
27715;BMP280;16051;53.024;8.630;2023-04-01T04:09:52;99369.84;;;10.06
27715;BMP280;16051;53.024;8.630;2023-04-01T04:13:54;99367.88;;;10.12
27715;BMP280;16051;53.024;8.630;2023-04-01T04:17:56;99369.38;;;10.13
27715;BMP280;16051;53.024;8.630;2023-04-01T04:21:59;99376.13;;;10.12
27715;BMP280;16051;53.024;8.630;2023-04-01T04:26:05;99382.16;;;10.05
27715;BMP280;16051;53.024;8.630;2023-04-01T04:30:09;99384.63;;;9.97
27715;BMP280;16051;53.024;8.630;2023-04-01T04:34:11;99385.16;;;10.01
27715;BMP280;16051;53.024;8.630;2023-04-01T04:38:15;99395.44;;;10.12
27715;BMP280;16051;53.024;8.630;2023-04-01T04:42:17;99395.44;;;10.01
27715;BMP280;16051;53.024;8.630;2023-04-01T04:46:20;99403.44;;;9.99
27715;BMP280;16051;53.024;8.630;2023-04-01T04:50:22;99405.94;;;9.97
27715;BMP280;16051;53.024;8.630;2023-04-01T04:54:26;99404.47;;;10.01
27715;BMP280;16051;53.024;8.630;2023-04-01T04:58:28;99414.47;;;9.93
27715;BMP280;16051;53.024;8.630;2023-04-01T05:02:30;99409.94;;;9.90
27715;BMP280;16051;53.024;8.630;2023-04-01T05:06:32;99415.47;;;9.96
27715;BMP280;16051;53.024;8.630;2023-04-01T05:10:36;99412.19;;;9.92
27715;BMP280;16051;53.024;8.630;2023-04-01T05:14:38;99426.25;;;9.94
27715;BMP280;16051;53.024;8.630;2023-04-01T05:18:40;99421.25;;;9.98
27715;BMP280;16051;53.024;8.630;2023-04-01T05:22:43;99422.22;;;9.83
27715;BMP280;16051;53.024;8.630;2023-04-01T05:26:47;99432.28;;;9.98
27715;BMP280;16051;53.024;8.630;2023-04-01T05:30:49;99432.00;;;9.90
27715;BMP280;16051;53.024;8.630;2023-04-01T05:35:08;99437.47;;;9.84
27715;BMP280;16051;53.024;8.630;2023-04-01T05:39:10;99438.53;;;9.93
27715;BMP280;16051;53.024;8.630;2023-04-01T05:43:32;99445.56;;;9.94
27715;BMP280;16051;53.024;8.630;2023-04-01T05:47:37;99442.25;;;9.84
27715;BMP280;16051;53.024;8.630;2023-04-01T05:51:39;99446.06;;;9.98
27715;BMP280;16051;53.024;8.630;2023-04-01T05:55:56;99448.31;;;9.94
27715;BMP280;16051;53.024;8.630;2023-04-01T06:00:00;99453.81;;;9.94
27715;BMP280;16051;53.024;8.630;2023-04-01T06:04:02;99455.09;;;9.98
27715;BMP280;16051;53.024;8.630;2023-04-01T06:08:10;99461.66;;;10.12
27715;BMP280;16051;53.024;8.630;2023-04-01T06:12:48;99461.09;;;10.02
27715;BMP280;16051;53.024;8.630;2023-04-01T06:17:15;99469.38;;;10.02
27715;BMP280;16051;53.024;8.630;2023-04-01T06:22:00;99467.66;;;10.10
27715;BMP280;16051;53.024;8.630;2023-04-01T06:26:30;99488.94;;;9.99
27715;BMP280;16051;53.024;8.630;2023-04-01T06:30:43;99478.13;;;9.95
27715;BMP280;16051;53.024;8.630;2023-04-01T06:35:06;99486.44;;;10.06
27715;BMP280;16051;53.024;8.630;2023-04-01T06:40:04;99486.97;;;10.10
27715;BMP280;16051;53.024;8.630;2023-04-01T06:44:16;99492.81;;;10.23
27715;BMP280;16051;53.024;8.630;2023-04-01T06:48:47;99497.53;;;10.17
27715;BMP280;16051;53.024;8.630;2023-04-01T06:53:05;99503.56;;;10.16
27715;BMP280;16051;53.024;8.630;2023-04-01T06:57:23;99495.00;;;10.08
27715;BMP280;16051;53.024;8.630;2023-04-01T07:01:45;99503.78;;;10.12
27715;BMP280;16051;53.024;8.630;2023-04-01T07:05:51;99511.38;;;10.23
27715;BMP280;16051;53.024;8.630;2023-04-01T07:09:58;99524.16;;;10.26
27715;BMP280;16051;53.024;8.630;2023-04-01T07:19:45;99531.69;;;10.31
27715;BMP280;16051;53.024;8.630;2023-04-01T07:24:05;99536.47;;;10.36
27715;BMP280;16051;53.024;8.630;2023-04-01T07:28:16;99544.56;;;10.45
27715;BMP280;16051;53.024;8.630;2023-04-01T07:32:33;99545.56;;;10.48
27715;BMP280;16051;53.024;8.630;2023-04-01T07:36:47;99546.28;;;10.43
27715;BMP280;16051;53.024;8.630;2023-04-01T07:41:04;99564.13;;;10.42
27715;BMP280;16051;53.024;8.630;2023-04-01T07:45:19;99564.84;;;10.42
27715;BMP280;16051;53.024;8.630;2023-04-01T07:49:36;99575.66;;;10.46
27715;BMP280;16051;53.024;8.630;2023-04-01T07:53:47;99572.41;;;10.47
27715;BMP280;16051;53.024;8.630;2023-04-01T07:58:15;99573.91;;;10.48
27715;BMP280;16051;53.024;8.630;2023-04-01T08:02:38;99583.75;;;10.71
27715;BMP280;16051;53.024;8.630;2023-04-01T08:06:50;99590.31;;;10.85
27715;BMP280;16051;53.024;8.630;2023-04-01T08:11:01;99595.09;;;10.96
27715;BMP280;16051;53.024;8.630;2023-04-01T08:15:17;99592.84;;;10.94
27715;BMP280;16051;53.024;8.630;2023-04-01T08:19:43;99609.44;;;11.05
27715;BMP280;16051;53.024;8.630;2023-04-01T08:23:55;99609.94;;;11.09
27715;BMP280;16051;53.024;8.630;2023-04-01T08:28:08;99615.22;;;11.13
27715;BMP280;16051;53.024;8.630;2023-04-01T08:32:32;99619.22;;;11.23
27715;BMP280;16051;53.024;8.630;2023-04-01T08:36:42;99622.50;;;11.21
27715;BMP280;16051;53.024;8.630;2023-04-01T08:41:53;99626.03;;;11.33
27715;BMP280;16051;53.024;8.630;2023-04-01T08:56:01;99643.88;;;11.60
27715;BMP280;16051;53.024;8.630;2023-04-01T09:00:22;99634.31;;;11.66
27715;BMP280;16051;53.024;8.630;2023-04-01T09:05:04;99648.66;;;11.76
27715;BMP280;16051;53.024;8.630;2023-04-01T09:09:51;99652.94;;;11.77
27715;BMP280;16051;53.024;8.630;2023-04-01T09:14:26;99657.97;;;11.90
27715;BMP280;16051;53.024;8.630;2023-04-01T09:18:55;99664.72;;;12.05
27715;BMP280;16051;53.024;8.630;2023-04-01T09:23:25;99666.69;;;12.16
27715;BMP280;16051;53.024;8.630;2023-04-01T09:27:39;99659.16;;;12.16
27715;BMP280;16051;53.024;8.630;2023-04-01T09:32:13;99681.53;;;12.29
27715;BMP280;16051;53.024;8.630;2023-04-01T09:36:38;99678.75;;;12.35
27715;BMP280;16051;53.024;8.630;2023-04-01T09:41:05;99681.44;;;12.57
27715;BMP280;16051;53.024;8.630;2023-04-01T09:45:43;99690.00;;;12.48
27715;BMP280;16051;53.024;8.630;2023-04-01T09:50:27;99696.81;;;12.53
27715;BMP280;16051;53.024;8.630;2023-04-01T10:09:40;99714.41;;;12.61
27715;BMP280;16051;53.024;8.630;2023-04-01T10:14:37;99717.94;;;12.56
27715;BMP280;16051;53.024;8.630;2023-04-01T10:19:43;99718.19;;;12.58
27715;BMP280;16051;53.024;8.630;2023-04-01T10:34:10;99740.59;;;12.54
27715;BMP280;16051;53.024;8.630;2023-04-01T10:39:08;99736.81;;;12.57
27715;BMP280;16051;53.024;8.630;2023-04-01T10:44:11;99760.28;;;12.23
27715;BMP280;16051;53.024;8.630;2023-04-01T10:53:32;99787.38;;;11.58
27715;BMP280;16051;53.024;8.630;2023-04-01T11:03:18;99803.22;;;10.81
27715;BMP280;16051;53.024;8.630;2023-04-01T11:13:27;99810.38;;;10.25
27715;BMP280;16051;53.024;8.630;2023-04-01T11:18:18;99825.84;;;10.17
27715;BMP280;16051;53.024;8.630;2023-04-01T11:22:59;99832.28;;;10.09
27715;BMP280;16051;53.024;8.630;2023-04-01T11:32:20;99851.41;;;9.92
27715;BMP280;16051;53.024;8.630;2023-04-01T11:36:40;99863.50;;;9.95
27715;BMP280;16051;53.024;8.630;2023-04-01T11:40:56;99875.38;;;9.80
27715;BMP280;16051;53.024;8.630;2023-04-01T11:45:32;99861.78;;;9.77
27715;BMP280;16051;53.024;8.630;2023-04-01T11:49:56;99870.44;;;9.64
27715;BMP280;16051;53.024;8.630;2023-04-01T11:54:16;99888.41;;;9.80
27715;BMP280;16051;53.024;8.630;2023-04-01T11:59:21;99894.66;;;9.80
27715;BMP280;16051;53.024;8.630;2023-04-01T12:03:46;99900.84;;;9.96
27715;BMP280;16051;53.024;8.630;2023-04-01T12:08:13;99909.34;;;9.92
27715;BMP280;16051;53.024;8.630;2023-04-01T12:13:02;99917.81;;;10.09
27715;BMP280;16051;53.024;8.630;2023-04-01T12:17:33;99919.25;;;10.04
27715;BMP280;16051;53.024;8.630;2023-04-01T12:21:49;99926.28;;;10.05
27715;BMP280;16051;53.024;8.630;2023-04-01T12:31:02;99954.78;;;9.97
27715;BMP280;16051;53.024;8.630;2023-04-01T12:35:24;99959.16;;;9.83
27715;BMP280;16051;53.024;8.630;2023-04-01T12:44:41;99975.19;;;9.84
27715;BMP280;16051;53.024;8.630;2023-04-01T12:49:26;99979.41;;;9.60
27715;BMP280;16051;53.024;8.630;2023-04-01T12:53:59;99988.84;;;9.53
27715;BMP280;16051;53.024;8.630;2023-04-01T12:58:54;99977.25;;;9.49
27715;BMP280;16051;53.024;8.630;2023-04-01T13:03:32;100007.91;;;9.36
27715;BMP280;16051;53.024;8.630;2023-04-01T13:08:02;100012.50;;;9.25
27715;BMP280;16051;53.024;8.630;2023-04-01T13:12:52;100025.13;;;9.17
27715;BMP280;16051;53.024;8.630;2023-04-01T13:17:14;100025.34;;;9.13
27715;BMP280;16051;53.024;8.630;2023-04-01T13:21:34;100031.03;;;9.10
27715;BMP280;16051;53.024;8.630;2023-04-01T13:25:49;100049.16;;;9.16
27715;BMP280;16051;53.024;8.630;2023-04-01T13:30:18;100043.84;;;9.13
27715;BMP280;16051;53.024;8.630;2023-04-01T13:34:37;100062.88;;;9.11
27715;BMP280;16051;53.024;8.630;2023-04-01T13:43:26;100085.00;;;9.02
27715;BMP280;16051;53.024;8.630;2023-04-01T13:48:41;100081.00;;;8.88
27715;BMP280;16051;53.024;8.630;2023-04-01T13:53:30;100097.53;;;8.88
27715;BMP280;16051;53.024;8.630;2023-04-01T13:58:05;100098.84;;;8.78
27715;BMP280;16051;53.024;8.630;2023-04-01T14:02:33;100114.81;;;8.74
27715;BMP280;16051;53.024;8.630;2023-04-01T14:06:58;100117.00;;;8.84
27715;BMP280;16051;53.024;8.630;2023-04-01T14:11:15;100119.47;;;8.82
27715;BMP280;16051;53.024;8.630;2023-04-01T14:16:10;100129.22;;;8.69
27715;BMP280;16051;53.024;8.630;2023-04-01T14:20:37;100140.97;;;8.69
27715;BMP280;16051;53.024;8.630;2023-04-01T14:24:58;100151.16;;;8.78
27715;BMP280;16051;53.024;8.630;2023-04-01T14:29:18;100158.72;;;8.68
27715;BMP280;16051;53.024;8.630;2023-04-01T14:33:49;100157.94;;;8.53
27715;BMP280;16051;53.024;8.630;2023-04-01T14:42:58;100175.28;;;8.45
27715;BMP280;16051;53.024;8.630;2023-04-01T14:47:31;100196.25;;;8.42
27715;BMP280;16051;53.024;8.630;2023-04-01T14:51:52;100192.50;;;8.30
27715;BMP280;16051;53.024;8.630;2023-04-01T14:56:00;100201.50;;;8.31
27715;BMP280;16051;53.024;8.630;2023-04-01T15:00:14;100205.03;;;8.31
27715;BMP280;16051;53.024;8.630;2023-04-01T15:04:50;100204.84;;;8.26
27715;BMP280;16051;53.024;8.630;2023-04-01T15:09:06;100222.75;;;8.30
27715;BMP280;16051;53.024;8.630;2023-04-01T15:13:23;100222.03;;;8.21
27715;BMP280;16051;53.024;8.630;2023-04-01T15:17:45;100240.16;;;8.27
27715;BMP280;16051;53.024;8.630;2023-04-01T15:22:22;100249.63;;;8.35
27715;BMP280;16051;53.024;8.630;2023-04-01T15:31:15;100269.56;;;8.12
27715;BMP280;16051;53.024;8.630;2023-04-01T15:35:43;100288.84;;;8.03
27715;BMP280;16051;53.024;8.630;2023-04-01T15:39:58;100302.94;;;7.96
27715;BMP280;16051;53.024;8.630;2023-04-01T15:44:04;100302.03;;;7.99
27715;BMP280;16051;53.024;8.630;2023-04-01T15:48:43;100309.66;;;7.95
27715;BMP280;16051;53.024;8.630;2023-04-01T15:52:59;100313.66;;;7.85
27715;BMP280;16051;53.024;8.630;2023-04-01T15:57:29;100327.75;;;7.69
27715;BMP280;16051;53.024;8.630;2023-04-01T16:02:15;100334.94;;;7.48
27715;BMP280;16051;53.024;8.630;2023-04-01T16:06:51;100344.84;;;7.55
27715;BMP280;16051;53.024;8.630;2023-04-01T16:11:19;100363.16;;;7.58
27715;BMP280;16051;53.024;8.630;2023-04-01T16:15:46;100368.97;;;7.60
27715;BMP280;16051;53.024;8.630;2023-04-01T16:19:55;100375.53;;;7.53
27715;BMP280;16051;53.024;8.630;2023-04-01T16:24:10;100389.28;;;7.53
27715;BMP280;16051;53.024;8.630;2023-04-01T16:28:22;100393.53;;;7.36
27715;BMP280;16051;53.024;8.630;2023-04-01T16:32:48;100405.13;;;7.22
27715;BMP280;16051;53.024;8.630;2023-04-01T16:37:00;100416.13;;;7.22
27715;BMP280;16051;53.024;8.630;2023-04-01T16:41:16;100419.44;;;7.17
27715;BMP280;16051;53.024;8.630;2023-04-01T16:45:33;100435.44;;;7.09
27715;BMP280;16051;53.024;8.630;2023-04-01T16:49:42;100442.31;;;7.05
27715;BMP280;16051;53.024;8.630;2023-04-01T16:53:50;100453.47;;;7.10
27715;BMP280;16051;53.024;8.630;2023-04-01T16:58:00;100466.72;;;7.03
27715;BMP280;16051;53.024;8.630;2023-04-01T17:02:10;100467.47;;;6.94
27715;BMP280;16051;53.024;8.630;2023-04-01T17:06:27;100481.94;;;6.94
27715;BMP280;16051;53.024;8.630;2023-04-01T17:10:46;100488.16;;;6.86
27715;BMP280;16051;53.024;8.630;2023-04-01T17:15:01;100497.88;;;6.78
27715;BMP280;16051;53.024;8.630;2023-04-01T17:19:30;100512.94;;;6.73
27715;BMP280;16051;53.024;8.630;2023-04-01T17:23:41;100525.72;;;6.67
27715;BMP280;16051;53.024;8.630;2023-04-01T17:28:02;100537.59;;;6.64
27715;BMP280;16051;53.024;8.630;2023-04-01T17:32:17;100544.94;;;6.67
27715;BMP280;16051;53.024;8.630;2023-04-01T17:36:49;100565.34;;;6.66
27715;BMP280;16051;53.024;8.630;2023-04-01T17:41:30;100568.94;;;6.54
27715;BMP280;16051;53.024;8.630;2023-04-01T17:45:44;100572.06;;;6.43
27715;BMP280;16051;53.024;8.630;2023-04-01T17:50:02;100586.25;;;6.29
27715;BMP280;16051;53.024;8.630;2023-04-01T17:54:20;100602.72;;;6.29
27715;BMP280;16051;53.024;8.630;2023-04-01T17:58:31;100607.34;;;6.32
27715;BMP280;16051;53.024;8.630;2023-04-01T18:02:48;100617.41;;;6.35
27715;BMP280;16051;53.024;8.630;2023-04-01T18:07:33;100638.16;;;6.36
27715;BMP280;16051;53.024;8.630;2023-04-01T18:12:09;100639.59;;;6.28
27715;BMP280;16051;53.024;8.630;2023-04-01T18:16:27;100644.44;;;6.24
27715;BMP280;16051;53.024;8.630;2023-04-01T18:20:48;100662.56;;;6.22
27715;BMP280;16051;53.024;8.630;2023-04-01T18:25:02;100664.59;;;6.30
27715;BMP280;16051;53.024;8.630;2023-04-01T18:29:23;100677.91;;;6.19
27715;BMP280;16051;53.024;8.630;2023-04-01T18:33:34;100695.81;;;6.11
27715;BMP280;16051;53.024;8.630;2023-04-01T18:37:52;100713.25;;;6.05
27715;BMP280;16051;53.024;8.630;2023-04-01T18:42:10;100722.03;;;6.00
27715;BMP280;16051;53.024;8.630;2023-04-01T18:46:26;100729.59;;;5.96
27715;BMP280;16051;53.024;8.630;2023-04-01T18:50:38;100745.56;;;5.84
27715;BMP280;16051;53.024;8.630;2023-04-01T18:55:24;100754.69;;;5.81
27715;BMP280;16051;53.024;8.630;2023-04-01T18:59:39;100759.72;;;5.83
27715;BMP280;16051;53.024;8.630;2023-04-01T19:03:53;100769.03;;;5.85
27715;BMP280;16051;53.024;8.630;2023-04-01T19:08:19;100783.75;;;5.91
27715;BMP280;16051;53.024;8.630;2023-04-01T19:12:38;100796.84;;;6.00
27715;BMP280;16051;53.024;8.630;2023-04-01T19:16:54;100802.53;;;5.93
27715;BMP280;16051;53.024;8.630;2023-04-01T19:21:10;100805.31;;;5.77
27715;BMP280;16051;53.024;8.630;2023-04-01T19:25:28;100812.00;;;5.76
27715;BMP280;16051;53.024;8.630;2023-04-01T19:29:51;100833.13;;;5.63
27715;BMP280;16051;53.024;8.630;2023-04-01T19:34:18;100835.41;;;5.52
27715;BMP280;16051;53.024;8.630;2023-04-01T19:38:30;100835.78;;;5.66
27715;BMP280;16051;53.024;8.630;2023-04-01T19:42:51;100844.75;;;5.67
27715;BMP280;16051;53.024;8.630;2023-04-01T19:47:04;100846.94;;;5.59
27715;BMP280;16051;53.024;8.630;2023-04-01T19:51:23;100868.88;;;5.43
27715;BMP280;16051;53.024;8.630;2023-04-01T19:55:36;100886.78;;;5.47
27715;BMP280;16051;53.024;8.630;2023-04-01T19:59:47;100886.44;;;5.45
27715;BMP280;16051;53.024;8.630;2023-04-01T20:03:55;100903.22;;;5.47
27715;BMP280;16051;53.024;8.630;2023-04-01T20:08:11;100909.75;;;5.37
27715;BMP280;16051;53.024;8.630;2023-04-01T20:12:30;100916.56;;;5.45
27715;BMP280;16051;53.024;8.630;2023-04-01T20:16:55;100931.47;;;5.44
27715;BMP280;16051;53.024;8.630;2023-04-01T20:21:05;100947.81;;;5.48
27715;BMP280;16051;53.024;8.630;2023-04-01T20:25:17;100962.03;;;5.43
27715;BMP280;16051;53.024;8.630;2023-04-01T20:29:43;100966.91;;;5.52
27715;BMP280;16051;53.024;8.630;2023-04-01T20:34:26;100965.72;;;5.36
27715;BMP280;16051;53.024;8.630;2023-04-01T20:39:16;100983.50;;;5.28
27715;BMP280;16051;53.024;8.630;2023-04-01T20:43:42;100991.00;;;5.28
27715;BMP280;16051;53.024;8.630;2023-04-01T20:48:05;100995.44;;;5.38
27715;BMP280;16051;53.024;8.630;2023-04-01T20:52:37;101002.97;;;5.34
27715;BMP280;16051;53.024;8.630;2023-04-01T20:56:57;101020.50;;;5.20
27715;BMP280;16051;53.024;8.630;2023-04-01T21:01:21;101020.84;;;5.22
27715;BMP280;16051;53.024;8.630;2023-04-01T21:10:40;101025.63;;;5.18
27715;BMP280;16051;53.024;8.630;2023-04-01T21:15:07;101046.59;;;5.09
27715;BMP280;16051;53.024;8.630;2023-04-01T21:19:36;101060.44;;;5.02
27715;BMP280;16051;53.024;8.630;2023-04-01T21:24:01;101056.22;;;4.97
27715;BMP280;16051;53.024;8.630;2023-04-01T21:28:30;101073.16;;;4.92
27715;BMP280;16051;53.024;8.630;2023-04-01T21:32:59;101088.75;;;4.95
27715;BMP280;16051;53.024;8.630;2023-04-01T21:37:44;101096.34;;;4.87
27715;BMP280;16051;53.024;8.630;2023-04-01T21:42:12;101093.38;;;4.78
27715;BMP280;16051;53.024;8.630;2023-04-01T21:46:51;101107.97;;;4.72
27715;BMP280;16051;53.024;8.630;2023-04-01T21:51:50;101110.84;;;4.65
27715;BMP280;16051;53.024;8.630;2023-04-01T22:01:47;101143.50;;;4.56
27715;BMP280;16051;53.024;8.630;2023-04-01T22:06:00;101148.25;;;4.52
27715;BMP280;16051;53.024;8.630;2023-04-01T22:10:21;101145.66;;;4.44
27715;BMP280;16051;53.024;8.630;2023-04-01T22:14:42;101159.72;;;4.43
27715;BMP280;16051;53.024;8.630;2023-04-01T22:18:54;101177.31;;;4.42
27715;BMP280;16051;53.024;8.630;2023-04-01T22:23:20;101174.56;;;4.22
27715;BMP280;16051;53.024;8.630;2023-04-01T22:27:31;101179.72;;;4.17
27715;BMP280;16051;53.024;8.630;2023-04-01T22:31:43;101195.50;;;4.06
27715;BMP280;16051;53.024;8.630;2023-04-01T22:35:55;101211.41;;;4.14
27715;BMP280;16051;53.024;8.630;2023-04-01T22:40:22;101218.66;;;4.01
27715;BMP280;16051;53.024;8.630;2023-04-01T22:44:44;101228.97;;;3.90
27715;BMP280;16051;53.024;8.630;2023-04-01T22:48:56;101232.88;;;3.89
27715;BMP280;16051;53.024;8.630;2023-04-01T22:53:07;101245.78;;;3.88
27715;BMP280;16051;53.024;8.630;2023-04-01T22:57:35;101257.63;;;3.78
27715;BMP280;16051;53.024;8.630;2023-04-01T23:01:55;101258.06;;;3.73
27715;BMP280;16051;53.024;8.630;2023-04-01T23:06:01;101280.47;;;3.65
27715;BMP280;16051;53.024;8.630;2023-04-01T23:10:14;101286.47;;;3.53
27715;BMP280;16051;53.024;8.630;2023-04-01T23:14:38;101298.69;;;3.41
27715;BMP280;16051;53.024;8.630;2023-04-01T23:18:54;101307.78;;;3.31
27715;BMP280;16051;53.024;8.630;2023-04-01T23:23:12;101313.63;;;3.29
27715;BMP280;16051;53.024;8.630;2023-04-01T23:27:31;101321.47;;;3.27
27715;BMP280;16051;53.024;8.630;2023-04-01T23:31:38;101329.38;;;3.18
27715;BMP280;16051;53.024;8.630;2023-04-01T23:35:47;101341.09;;;3.15
27715;BMP280;16051;53.024;8.630;2023-04-01T23:39:54;101339.25;;;3.05
27715;BMP280;16051;53.024;8.630;2023-04-01T23:44:00;101350.94;;;3.06
27715;BMP280;16051;53.024;8.630;2023-04-01T23:48:15;101358.78;;;3.04
27715;BMP280;16051;53.024;8.630;2023-04-01T23:52:23;101372.44;;;3.00
27715;BMP280;16051;53.024;8.630;2023-04-01T23:56:42;101380.69;;;2.96
